Terminal Aerodrome Forecast
Issued by NWS

Home | Current Version | Previous Version | Text Only | Print | Product List | Glossary On
Versions: 1 2 3 4 5 6 7 8 9 10 11 12
000
FTUS45 KRIW 210500
TAFCOD
TAF
KCOD 210520Z 2106/2206 VRB06KT P6SM VCSH SCT070 OVC100
     FM211000 20007KT P6SM SCT090 BKN200
     FM212000 VRB10KT P6SM VCTS SCT070CB OVC150
     FM220200 36010KT P6SM SCT090 BKN200
      AMD LTD TO CLD VIS AND WIND=

USA.gov is the U.S. government's official web portal to all federal, state and local government web resources and services.